createdAt,value
2022-07-30T00:01:19.269Z,61.20
2022-07-30T00:03:46.474Z,61.20
2022-07-30T00:06:13.608Z,61.20
2022-07-30T00:08:40.651Z,61.20
2022-07-30T00:11:07.874Z,61.30
2022-07-30T00:13:34.966Z,61.30
2022-07-30T00:16:04.144Z,61.40
2022-07-30T00:18:31.495Z,61.50
2022-07-30T00:20:59.367Z,61.50
2022-07-30T00:23:26.745Z,61.60
2022-07-30T00:25:54.137Z,61.60
2022-07-30T00:28:22.198Z,61.50
2022-07-30T00:30:49.504Z,61.60
2022-07-30T00:33:22.731Z,61.70
2022-07-30T00:35:50.160Z,61.80
2022-07-30T00:38:18.689Z,61.90
2022-07-30T00:40:50.428Z,62.00
2022-07-30T00:43:18.210Z,62.00
2022-07-30T00:45:45.777Z,62.00
2022-07-30T00:48:14.371Z,62.00
2022-07-30T00:50:42.123Z,62.10
2022-07-30T00:53:15.030Z,62.00
2022-07-30T00:55:42.378Z,62.10
2022-07-30T00:58:09.496Z,62.10
2022-07-30T01:00:37.043Z,62.20
2022-07-30T01:03:04.906Z,62.20
2022-07-30T01:05:32.030Z,62.40
2022-07-30T01:07:59.512Z,62.40
2022-07-30T01:10:26.740Z,62.40
2022-07-30T01:12:54.612Z,62.50
2022-07-30T01:15:22.775Z,62.50
2022-07-30T01:17:53.503Z,62.70
2022-07-30T01:20:37.421Z,62.80
2022-07-30T01:23:32.154Z,62.80
2022-07-30T01:26:09.078Z,62.90
2022-07-30T01:28:43.293Z,62.70
2022-07-30T01:31:12.292Z,62.90
2022-07-30T01:33:42.991Z,62.80
2022-07-30T01:36:15.753Z,63.00
2022-07-30T01:38:46.458Z,63.00
2022-07-30T01:41:16.024Z,63.00
2022-07-30T01:43:45.351Z,63.20
2022-07-30T01:46:15.284Z,63.10
2022-07-30T01:48:46.447Z,63.20
2022-07-30T01:51:17.011Z,63.40
2022-07-30T01:53:51.227Z,63.30
2022-07-30T01:56:24.801Z,63.50
2022-07-30T01:58:55.334Z,63.70
2022-07-30T02:01:27.255Z,63.40
2022-07-30T02:04:01.600Z,63.50
2022-07-30T02:06:38.523Z,63.60
2022-07-30T02:09:11.230Z,63.90
2022-07-30T02:12:08.020Z,63.90
2022-07-30T02:14:55.209Z,63.90
2022-07-30T02:17:30.472Z,63.90
2022-07-30T02:20:10.071Z,63.90
2022-07-30T02:22:41.356Z,63.80
2022-07-30T02:25:10.660Z,64.20
2022-07-30T02:27:42.372Z,64.20
2022-07-30T02:30:11.330Z,64.00
2022-07-30T02:32:42.803Z,63.80
2022-07-30T02:35:17.430Z,63.90
2022-07-30T02:37:46.717Z,64.00
2022-07-30T02:40:17.208Z,64.20
2022-07-30T02:42:46.321Z,64.30
2022-07-30T02:45:20.224Z,64.10
2022-07-30T02:47:52.451Z,64.20
2022-07-30T02:50:21.247Z,64.20
2022-07-30T02:52:49.682Z,64.30
2022-07-30T02:55:19.061Z,64.30
2022-07-30T02:57:48.644Z,64.40
2022-07-30T03:00:17.294Z,64.50
2022-07-30T03:02:45.756Z,64.50
2022-07-30T03:05:15.431Z,64.60
2022-07-30T03:07:43.269Z,64.50
2022-07-30T03:10:13.541Z,64.60
2022-07-30T03:12:44.789Z,64.80
2022-07-30T03:15:13.783Z,64.50
2022-07-30T03:17:45.482Z,64.50
2022-07-30T03:20:17.665Z,64.70
2022-07-30T03:22:49.963Z,64.90
2022-07-30T03:25:23.716Z,64.90
2022-07-30T03:27:54.382Z,65.00
2022-07-30T03:30:23.995Z,65.10
2022-07-30T03:32:53.448Z,65.00
2022-07-30T03:35:22.176Z,65.00
2022-07-30T03:37:49.716Z,64.90
2022-07-30T03:40:19.391Z,65.00
2022-07-30T03:42:49.271Z,65.30
2022-07-30T03:45:21.073Z,65.10
2022-07-30T03:47:50.230Z,65.20
2022-07-30T03:50:17.427Z,65.30
2022-07-30T03:52:45.452Z,65.60
2022-07-30T03:55:17.368Z,65.70
2022-07-30T03:57:51.077Z,65.70
2022-07-30T04:00:22.816Z,65.40
2022-07-30T04:02:52.595Z,65.50
2022-07-30T04:05:40.999Z,65.70
2022-07-30T04:08:09.073Z,65.50
2022-07-30T04:10:36.361Z,65.40
2022-07-30T04:13:09.267Z,65.70
2022-07-30T04:16:37.580Z,65.90
2022-07-30T04:18:51.974Z,65.70
2022-07-30T04:21:22.806Z,65.90
2022-07-30T04:24:01.770Z,65.80
2022-07-30T04:26:36.576Z,65.80
2022-07-30T04:29:09.491Z,66.70
2022-07-30T04:31:41.720Z,65.90
2022-07-30T04:34:27.498Z,65.90
2022-07-30T04:36:55.061Z,66.20
2022-07-30T04:39:22.596Z,66.30
2022-07-30T04:41:50.224Z,66.30
2022-07-30T04:44:32.653Z,66.30
2022-07-30T04:47:24.124Z,66.20
2022-07-30T04:50:11.977Z,66.30
2022-07-30T04:52:39.293Z,66.30
2022-07-30T04:55:08.881Z,66.30
2022-07-30T04:57:38.851Z,66.40
2022-07-30T05:00:07.010Z,66.70
2022-07-30T05:02:40.176Z,66.60
2022-07-30T05:05:09.430Z,66.50
2022-07-30T05:07:38.073Z,66.50
2022-07-30T05:10:08.054Z,66.60
2022-07-30T05:12:39.306Z,66.80
2022-07-30T05:15:08.701Z,66.60
2022-07-30T05:17:36.969Z,66.70
2022-07-30T05:20:06.996Z,66.70
2022-07-30T05:22:52.700Z,66.60
2022-07-30T05:25:21.984Z,66.70
2022-07-30T05:27:52.543Z,66.60
2022-07-30T05:30:19.559Z,66.70
2022-07-30T05:32:53.618Z,66.70
2022-07-30T05:35:23.536Z,66.80
2022-07-30T05:37:50.801Z,66.80
2022-07-30T05:40:19.587Z,66.70
2022-07-30T05:43:22.941Z,66.70
2022-07-30T05:45:50.101Z,66.70
2022-07-30T05:48:17.301Z,66.70
2022-07-30T05:50:44.381Z,66.70
2022-07-30T05:53:11.393Z,66.80
2022-07-30T05:55:57.634Z,66.70
2022-07-30T05:58:44.738Z,66.70
2022-07-30T06:01:15.249Z,66.70
2022-07-30T06:03:42.508Z,66.70
2022-07-30T06:06:28.186Z,66.70
2022-07-30T06:08:55.733Z,66.80
2022-07-30T06:11:23.061Z,66.90
2022-07-30T06:13:50.082Z,66.90
2022-07-30T06:16:18.673Z,66.80
2022-07-30T06:18:46.228Z,66.90
2022-07-30T06:21:22.317Z,66.80
2022-07-30T06:24:10.931Z,66.80
2022-07-30T06:27:07.114Z,66.90
2022-07-30T06:29:34.532Z,66.90
2022-07-30T06:32:01.656Z,67.00
2022-07-30T06:34:28.776Z,66.90
2022-07-30T06:36:55.811Z,67.00
2022-07-30T06:39:57.557Z,67.00
2022-07-30T06:42:15.650Z,67.00
2022-07-30T06:45:02.640Z,67.00
2022-07-30T06:47:48.468Z,67.10
2022-07-30T06:50:15.931Z,67.20
2022-07-30T06:52:43.012Z,67.10
2022-07-30T06:55:10.368Z,67.20
2022-07-30T06:57:48.067Z,67.30
2022-07-30T07:00:36.119Z,67.40
2022-07-30T07:03:11.755Z,67.50
2022-07-30T07:05:40.327Z,67.50
2022-07-30T07:08:07.595Z,68.10
2022-07-30T07:10:38.675Z,67.40
2022-07-30T07:13:29.209Z,67.40
2022-07-30T07:15:57.987Z,68.00
2022-07-30T07:18:27.284Z,67.40
2022-07-30T07:20:59.476Z,67.50
2022-07-30T07:23:41.630Z,67.80
2022-07-30T07:26:31.387Z,68.10
2022-07-30T07:29:01.129Z,68.20
2022-07-30T07:32:07.350Z,68.30
2022-07-30T07:34:19.563Z,68.40
2022-07-30T07:36:46.796Z,68.50
2022-07-30T07:39:14.989Z,68.70
2022-07-30T07:41:48.783Z,69.10
2022-07-30T07:44:20.842Z,69.20
2022-07-30T07:46:48.499Z,69.30
2022-07-30T07:49:15.879Z,69.50
2022-07-30T07:51:52.863Z,69.60
2022-07-30T07:54:22.991Z,69.70
2022-07-30T07:56:53.303Z,69.80
2022-07-30T07:59:27.735Z,69.90
2022-07-30T08:02:08.557Z,70.10
2022-07-30T08:04:49.606Z,70.30
2022-07-30T08:07:40.120Z,70.50
2022-07-30T08:10:26.898Z,70.70
2022-07-30T08:13:52.400Z,70.90
2022-07-30T08:16:18.342Z,71.00
2022-07-30T08:19:04.341Z,71.10
2022-07-30T08:21:35.303Z,71.10
2022-07-30T08:24:02.556Z,71.30
2022-07-30T08:26:29.899Z,70.40
2022-07-30T08:28:57.050Z,66.80
2022-07-30T08:31:24.461Z,65.20
2022-07-30T08:33:51.522Z,64.80
2022-07-30T08:36:21.543Z,63.50
2022-07-30T08:38:49.932Z,63.90
2022-07-30T08:41:20.360Z,63.20
2022-07-30T08:43:51.224Z,63.20
2022-07-30T08:46:25.005Z,62.10
2022-07-30T08:48:58.264Z,63.30
2022-07-30T08:51:25.808Z,62.50
2022-07-30T08:54:11.569Z,62.70
2022-07-30T08:56:39.450Z,62.40
2022-07-30T08:59:07.800Z,61.70
2022-07-30T09:01:34.916Z,61.20
2022-07-30T09:04:03.512Z,61.30
2022-07-30T09:06:30.964Z,60.40
2022-07-30T09:08:59.506Z,60.40
2022-07-30T09:11:27.810Z,59.80
2022-07-30T09:13:55.716Z,59.60
2022-07-30T09:16:26.150Z,59.70
2022-07-30T09:18:57.845Z,59.50
2022-07-30T09:21:26.295Z,59.20
2022-07-30T09:24:11.873Z,59.30
2022-07-30T09:27:07.102Z,59.30
2022-07-30T09:30:00.228Z,59.50
2022-07-30T09:32:51.109Z,58.80
2022-07-30T09:35:36.699Z,59.20
2022-07-30T09:38:10.616Z,59.10
2022-07-30T09:41:12.251Z,58.90
2022-07-30T09:44:06.327Z,58.50
2022-07-30T09:46:48.256Z,58.30
2022-07-30T09:49:37.473Z,58.30
2022-07-30T09:52:04.549Z,57.90
2022-07-30T09:54:51.432Z,58.10
2022-07-30T09:57:27.316Z,57.50
2022-07-30T10:00:19.655Z,57.60
2022-07-30T10:03:42.290Z,57.10
2022-07-30T10:06:38.143Z,56.80
2022-07-30T10:09:29.697Z,57.50
2022-07-30T10:12:03.009Z,57.20
2022-07-30T10:14:42.627Z,57.20
2022-07-30T10:17:12.965Z,57.40
2022-07-30T10:19:42.007Z,56.90
2022-07-30T10:22:28.830Z,56.70
2022-07-30T10:25:23.031Z,56.70
2022-07-30T10:28:14.244Z,56.60
2022-07-30T10:30:45.237Z,56.60
2022-07-30T10:33:37.769Z,56.70
2022-07-30T10:36:00.017Z,56.70
2022-07-30T10:38:33.850Z,56.50
2022-07-30T10:41:43.351Z,56.70
2022-07-30T10:44:44.986Z,56.50
2022-07-30T10:47:14.453Z,57.30
2022-07-30T10:49:43.150Z,56.80
2022-07-30T10:52:12.248Z,56.60
2022-07-30T10:54:47.499Z,56.70
2022-07-30T10:57:22.997Z,57.10
2022-07-30T11:00:00.945Z,56.90
2022-07-30T11:02:31.281Z,56.70
2022-07-30T11:05:18.000Z,56.80
2022-07-30T11:07:47.268Z,56.40
2022-07-30T11:10:43.837Z,56.60
2022-07-30T11:13:11.155Z,56.60
2022-07-30T11:15:57.220Z,56.50
2022-07-30T11:18:26.649Z,56.20
2022-07-30T11:21:16.873Z,56.50
2022-07-30T11:23:45.851Z,56.90
2022-07-30T11:26:46.593Z,56.10
2022-07-30T11:29:33.430Z,55.90
2022-07-30T11:32:26.650Z,55.50
2022-07-30T11:35:11.913Z,54.70
2022-07-30T11:38:22.346Z,54.80
2022-07-30T11:40:49.577Z,55.10
2022-07-30T11:43:35.261Z,55.20
2022-07-30T11:46:28.672Z,55.00
2022-07-30T11:48:59.989Z,54.70
2022-07-30T11:51:27.823Z,55.40
2022-07-30T11:54:03.247Z,55.80
2022-07-30T11:56:30.981Z,56.20
2022-07-30T11:59:08.403Z,56.30
2022-07-30T12:01:36.735Z,56.50
2022-07-30T12:04:08.944Z,56.50
2022-07-30T12:06:47.734Z,56.50
2022-07-30T12:09:29.171Z,56.60
2022-07-30T12:11:57.411Z,56.80
2022-07-30T12:14:24.877Z,56.70
2022-07-30T12:16:53.617Z,56.80
2022-07-30T12:19:20.952Z,57.00
2022-07-30T12:21:52.988Z,57.20
2022-07-30T12:24:26.431Z,57.50
2022-07-30T12:27:03.665Z,57.80
2022-07-30T12:29:32.902Z,57.80
2022-07-30T12:32:01.302Z,57.60
2022-07-30T12:34:28.576Z,57.50
2022-07-30T12:36:55.671Z,57.60
2022-07-30T12:39:25.806Z,57.70
2022-07-30T12:41:55.959Z,57.80
2022-07-30T12:44:40.359Z,58.00
2022-07-30T12:47:19.330Z,57.90
2022-07-30T12:49:49.758Z,57.80
2022-07-30T12:52:29.353Z,57.80
2022-07-30T12:55:12.696Z,58.00
2022-07-30T12:57:59.331Z,58.20
2022-07-30T13:00:47.091Z,55.80
2022-07-30T13:03:28.485Z,55.40
2022-07-30T13:05:57.183Z,54.10
2022-07-30T13:08:45.761Z,54.30
2022-07-30T13:11:12.922Z,53.50
2022-07-30T13:13:40.053Z,54.00
2022-07-30T13:16:07.951Z,53.70
2022-07-30T13:18:36.659Z,53.40
2022-07-30T13:21:06.842Z,53.20
2022-07-30T13:23:34.762Z,52.90
2022-07-30T13:26:02.058Z,52.20
2022-07-30T13:28:31.926Z,53.20
2022-07-30T13:31:00.626Z,53.00
2022-07-30T13:33:27.664Z,53.00
2022-07-30T13:35:54.650Z,52.70
2022-07-30T13:38:22.883Z,52.50
2022-07-30T13:40:50.179Z,52.50
2022-07-30T13:43:17.393Z,52.30
2022-07-30T13:45:44.657Z,52.40
2022-07-30T13:48:12.093Z,52.60
2022-07-30T13:50:39.103Z,52.40
2022-07-30T13:53:06.241Z,52.60
2022-07-30T13:55:33.379Z,52.60
2022-07-30T13:58:00.650Z,52.60
2022-07-30T14:00:34.295Z,52.50
2022-07-30T14:03:06.091Z,52.20
2022-07-30T14:05:36.088Z,51.90
2022-07-30T14:08:10.996Z,51.70
2022-07-30T14:10:39.870Z,51.70
2022-07-30T14:13:08.337Z,51.70
2022-07-30T14:15:35.746Z,51.60
2022-07-30T14:18:03.017Z,51.60
2022-07-30T14:20:31.139Z,51.60
2022-07-30T14:22:58.124Z,51.50
2022-07-30T14:25:25.488Z,51.60
2022-07-30T14:27:52.510Z,51.70
2022-07-30T14:30:20.315Z,51.70
2022-07-30T14:32:48.156Z,51.80
2022-07-30T14:35:15.167Z,51.90
2022-07-30T14:37:42.490Z,52.10
2022-07-30T14:40:13.985Z,52.10
2022-07-30T14:42:41.699Z,52.30
2022-07-30T14:45:10.221Z,52.30
2022-07-30T14:47:37.586Z,52.30
2022-07-30T14:50:06.606Z,52.20
2022-07-30T14:52:35.127Z,52.10
2022-07-30T14:55:03.943Z,52.00
2022-07-30T14:57:33.940Z,51.90
2022-07-30T15:00:01.502Z,52.00
2022-07-30T15:02:28.411Z,52.00
2022-07-30T15:04:55.657Z,52.10
2022-07-30T15:07:22.683Z,52.10
2022-07-30T15:09:49.877Z,52.10
2022-07-30T15:12:23.847Z,52.30
2022-07-30T15:14:54.032Z,52.30
2022-07-30T15:17:21.006Z,52.30
2022-07-30T15:19:50.672Z,52.50
2022-07-30T15:22:20.017Z,52.60
2022-07-30T15:24:47.321Z,52.60
2022-07-30T15:27:14.426Z,52.80
2022-07-30T15:29:41.545Z,53.00
2022-07-30T15:32:09.157Z,52.80
2022-07-30T15:34:36.278Z,52.80
2022-07-30T15:37:05.251Z,52.80
2022-07-30T15:39:33.969Z,52.80
2022-07-30T15:42:03.035Z,53.00
2022-07-30T15:44:30.442Z,53.10
2022-07-30T15:46:57.768Z,53.30
2022-07-30T15:49:25.007Z,53.50
2022-07-30T15:51:52.763Z,53.70
2022-07-30T15:54:23.287Z,53.80
2022-07-30T15:56:54.251Z,53.90
2022-07-30T15:59:29.159Z,54.10
2022-07-30T16:01:56.404Z,54.20
2022-07-30T16:04:31.317Z,54.40
2022-07-30T16:07:04.214Z,54.60
2022-07-30T16:09:31.698Z,55.10
2022-07-30T16:11:58.964Z,55.20
2022-07-30T16:14:27.365Z,55.30
2022-07-30T16:16:54.680Z,55.50
2022-07-30T16:19:23.064Z,55.70
2022-07-30T16:21:50.116Z,55.80
2022-07-30T16:24:17.258Z,56.00
2022-07-30T16:26:44.279Z,56.10
2022-07-30T16:29:13.877Z,56.30
2022-07-30T16:31:41.553Z,56.60
2022-07-30T16:34:08.659Z,56.80
2022-07-30T16:36:35.691Z,56.90
2022-07-30T16:39:04.835Z,57.10
2022-07-30T16:41:31.868Z,57.10
2022-07-30T16:43:58.886Z,57.20
2022-07-30T16:46:26.020Z,57.10
2022-07-30T16:48:53.175Z,57.30
2022-07-30T16:51:22.507Z,57.20
2022-07-30T16:53:49.503Z,57.30
2022-07-30T16:56:17.213Z,57.40
2022-07-30T16:58:44.880Z,57.50
2022-07-30T17:01:12.239Z,57.50
2022-07-30T17:03:39.791Z,57.60
2022-07-30T17:06:06.785Z,57.80
2022-07-30T17:08:35.306Z,57.90
2022-07-30T17:11:03.959Z,57.90
2022-07-30T17:13:37.029Z,57.80
2022-07-30T17:16:04.247Z,57.70
2022-07-30T17:18:32.426Z,57.80
2022-07-30T17:20:59.671Z,57.70
2022-07-30T17:23:26.699Z,57.80
2022-07-30T17:25:53.752Z,57.80
2022-07-30T17:28:21.765Z,57.80
2022-07-30T17:30:54.167Z,57.80
2022-07-30T17:33:21.886Z,57.80
2022-07-30T17:35:49.043Z,57.80
2022-07-30T17:38:16.133Z,57.80
2022-07-30T17:40:43.136Z,57.80
2022-07-30T17:43:11.642Z,58.10
2022-07-30T17:45:41.200Z,58.00
2022-07-30T17:48:08.355Z,58.00
2022-07-30T17:50:35.903Z,58.40
2022-07-30T17:53:04.206Z,58.60
2022-07-30T17:55:34.878Z,58.60
2022-07-30T17:58:05.765Z,58.60
2022-07-30T18:00:34.836Z,58.90
2022-07-30T18:03:02.142Z,58.60
2022-07-30T18:05:29.601Z,58.90
2022-07-30T18:07:56.640Z,58.90
2022-07-30T18:10:24.017Z,58.90
2022-07-30T18:12:51.150Z,59.00
2022-07-30T18:15:19.025Z,59.00
2022-07-30T18:17:46.140Z,59.00
2022-07-30T18:20:13.500Z,59.10
2022-07-30T18:22:40.869Z,59.30
2022-07-30T18:25:17.985Z,59.30
2022-07-30T18:27:47.743Z,59.40
2022-07-30T18:30:15.666Z,59.40
2022-07-30T18:32:43.407Z,59.50
2022-07-30T18:35:14.015Z,59.60
2022-07-30T18:37:43.710Z,59.60
2022-07-30T18:40:12.789Z,59.90
2022-07-30T18:42:39.905Z,60.00
2022-07-30T18:45:07.833Z,59.90
2022-07-30T18:47:35.050Z,60.10
2022-07-30T18:50:02.655Z,60.30
2022-07-30T18:52:29.710Z,60.20
2022-07-30T18:54:56.645Z,60.30
2022-07-30T18:57:23.840Z,60.40
2022-07-30T18:59:50.983Z,60.60
2022-07-30T19:02:18.041Z,60.40
2022-07-30T19:04:45.318Z,60.60
2022-07-30T19:07:12.367Z,60.80
2022-07-30T19:09:39.699Z,60.80
2022-07-30T19:12:07.232Z,61.10
2022-07-30T19:14:34.595Z,60.90
2022-07-30T19:17:01.553Z,61.00
2022-07-30T19:19:29.682Z,60.80
2022-07-30T19:21:57.291Z,60.60
2022-07-30T19:24:27.635Z,60.90
2022-07-30T19:26:56.004Z,60.80
2022-07-30T19:29:23.961Z,60.90
2022-07-30T19:31:50.981Z,61.00
2022-07-30T19:34:17.977Z,61.00
2022-07-30T19:36:44.914Z,61.10
2022-07-30T19:39:21.388Z,61.40
2022-07-30T19:41:51.014Z,61.70
2022-07-30T19:44:18.687Z,61.90
2022-07-30T19:46:48.774Z,62.20
2022-07-30T19:49:19.590Z,62.40
2022-07-30T19:52:10.071Z,62.40
2022-07-30T19:54:34.335Z,62.50
2022-07-30T19:57:04.150Z,62.30
2022-07-30T20:02:19.418Z,62.80
2022-07-30T20:04:49.814Z,63.30
2022-07-30T20:07:16.996Z,63.40
2022-07-30T20:09:44.889Z,63.60
2022-07-30T20:12:15.548Z,63.70
2022-07-30T20:14:44.263Z,63.90
2022-07-30T20:17:11.775Z,64.00
2022-07-30T20:19:39.351Z,64.20
2022-07-30T20:22:15.066Z,64.10
2022-07-30T20:24:42.489Z,64.50
2022-07-30T20:27:36.232Z,64.50
2022-07-30T20:29:56.832Z,64.80
2022-07-30T20:32:25.840Z,64.80
2022-07-30T20:34:54.035Z,65.00
2022-07-30T20:37:22.607Z,64.90
2022-07-30T20:39:50.506Z,65.00
2022-07-30T20:42:18.516Z,65.20
2022-07-30T20:44:50.590Z,65.50
2022-07-30T20:47:34.736Z,65.40
2022-07-30T20:50:10.779Z,65.50
2022-07-30T20:52:40.509Z,65.90
2022-07-30T20:55:16.577Z,65.70
2022-07-30T20:58:00.245Z,65.80
2022-07-30T21:00:31.760Z,65.70
2022-07-30T21:02:59.143Z,65.80
2022-07-30T21:05:30.693Z,65.90
2022-07-30T21:07:58.538Z,65.70
2022-07-30T21:10:25.980Z,65.80
2022-07-30T21:12:58.481Z,66.00
2022-07-30T21:15:32.833Z,66.00
2022-07-30T21:18:01.503Z,65.90
2022-07-30T21:20:30.266Z,65.90
2022-07-30T21:23:04.923Z,65.80
2022-07-30T21:25:33.430Z,66.00
2022-07-30T21:30:49.903Z,66.20
2022-07-30T21:33:17.097Z,66.30
2022-07-30T21:35:44.595Z,66.30
2022-07-30T21:38:12.841Z,66.50
2022-07-30T21:40:41.033Z,66.70
2022-07-30T21:43:08.198Z,66.70
2022-07-30T21:45:38.068Z,66.80
2022-07-30T21:48:10.856Z,66.90
2022-07-30T21:50:38.311Z,66.80
2022-07-30T21:53:05.366Z,67.60
2022-07-30T21:55:33.376Z,66.90
2022-07-30T21:58:25.108Z,67.10
2022-07-30T22:00:55.113Z,67.10
2022-07-30T22:04:03.732Z,67.30
2022-07-30T22:06:12.452Z,67.30
2022-07-30T22:08:40.129Z,67.80
2022-07-30T22:11:09.090Z,68.50
2022-07-30T22:13:51.545Z,69.00
2022-07-30T22:16:21.974Z,69.30
2022-07-30T22:18:50.306Z,69.80
2022-07-30T22:21:17.398Z,70.30
2022-07-30T22:23:54.937Z,70.40
2022-07-30T22:26:27.165Z,71.70
2022-07-30T22:28:54.548Z,71.30
2022-07-30T22:31:21.851Z,71.30
2022-07-30T22:33:50.922Z,71.50
2022-07-30T22:36:19.928Z,71.80
2022-07-30T22:38:58.521Z,71.90
2022-07-30T22:41:29.037Z,72.00
2022-07-30T22:43:56.535Z,72.20
2022-07-30T22:46:30.933Z,71.40
2022-07-30T22:48:59.733Z,70.70
2022-07-30T22:52:02.672Z,70.30
2022-07-30T22:54:14.844Z,70.00
2022-07-30T22:56:42.642Z,69.70
2022-07-30T22:59:19.298Z,69.50
2022-07-30T23:02:06.671Z,69.30
2022-07-30T23:04:39.463Z,69.10
2022-07-30T23:07:07.611Z,69.00
2022-07-30T23:09:42.292Z,68.80
2022-07-30T23:12:16.862Z,62.50
2022-07-30T23:12:20.113Z,68.80
2022-07-30T23:12:27.316Z,66.10
2022-07-30T23:14:48.170Z,68.70
2022-07-30T23:17:15.375Z,68.60
2022-07-30T23:19:42.549Z,68.50
2022-07-30T23:22:10.317Z,68.50
2022-07-30T23:24:37.707Z,68.50
2022-07-30T23:27:05.183Z,68.40
2022-07-30T23:29:32.693Z,68.40
2022-07-30T23:31:59.815Z,68.30
2022-07-30T23:34:27.495Z,68.30
2022-07-30T23:36:54.520Z,68.30
2022-07-30T23:39:21.768Z,68.30
2022-07-30T23:41:48.801Z,68.30
2022-07-30T23:44:16.224Z,68.20
2022-07-30T23:46:43.324Z,68.20
2022-07-30T23:49:11.202Z,68.20
2022-07-30T23:51:38.290Z,68.10
2022-07-30T23:54:06.419Z,68.10
2022-07-30T23:56:33.575Z,68.20
2022-07-30T23:59:01.193Z,68.10
